sensor_id;sensor_type;location;lat;lon;timestamp;P1;durP1;ratioP1;P2;durP2;ratioP2
53519;SDS011;39397;53.204;5.778;2022-09-27T00:00:22;5.88;;;0.80;;
53519;SDS011;39397;53.204;5.778;2022-09-27T00:02:48;7.75;;;1.10;;
53519;SDS011;39397;53.204;5.778;2022-09-27T00:05:14;5.75;;;0.93;;
53519;SDS011;39397;53.204;5.778;2022-09-27T00:07:40;4.72;;;0.60;;
53519;SDS011;39397;53.204;5.778;2022-09-27T00:10:07;6.45;;;0.60;;
53519;SDS011;39397;53.204;5.778;2022-09-27T00:12:33;4.22;;;0.50;;
53519;SDS011;39397;53.204;5.778;2022-09-27T00:15:00;5.72;;;0.73;;
53519;SDS011;39397;53.204;5.778;2022-09-27T00:17:26;9.25;;;0.60;;
53519;SDS011;39397;53.204;5.778;2022-09-27T00:19:52;2.67;;;0.40;;
53519;SDS011;39397;53.204;5.778;2022-09-27T00:22:20;1.17;;;0.20;;
53519;SDS011;39397;53.204;5.778;2022-09-27T00:24:47;2.15;;;0.40;;
53519;SDS011;39397;53.204;5.778;2022-09-27T00:27:13;2.65;;;0.38;;
53519;SDS011;39397;53.204;5.778;2022-09-27T00:29:38;2.30;;;0.38;;
53519;SDS011;39397;53.204;5.778;2022-09-27T00:32:04;1.88;;;0.50;;
53519;SDS011;39397;53.204;5.778;2022-09-27T00:34:29;2.88;;;0.40;;
53519;SDS011;39397;53.204;5.778;2022-09-27T00:36:55;3.65;;;0.60;;
53519;SDS011;39397;53.204;5.778;2022-09-27T00:39:21;5.28;;;0.60;;
53519;SDS011;39397;53.204;5.778;2022-09-27T00:41:47;4.32;;;0.63;;
53519;SDS011;39397;53.204;5.778;2022-09-27T00:49:49;4.47;;;0.80;;
53519;SDS011;39397;53.204;5.778;2022-09-27T00:52:20;2.88;;;0.50;;
53519;SDS011;39397;53.204;5.778;2022-09-27T00:55:00;6.57;;;0.70;;
53519;SDS011;39397;53.204;5.778;2022-09-27T00:57:30;5.47;;;0.60;;
53519;SDS011;39397;53.204;5.778;2022-09-27T01:00:01;5.63;;;0.82;;
53519;SDS011;39397;53.204;5.778;2022-09-27T01:02:30;8.45;;;0.80;;
53519;SDS011;39397;53.204;5.778;2022-09-27T01:04:57;7.80;;;0.68;;
53519;SDS011;39397;53.204;5.778;2022-09-27T01:07:23;5.63;;;0.73;;
53519;SDS011;39397;53.204;5.778;2022-09-27T01:09:48;7.15;;;0.88;;
53519;SDS011;39397;53.204;5.778;2022-09-27T01:14:44;7.40;;;1.00;;
53519;SDS011;39397;53.204;5.778;2022-09-27T01:29:23;1.90;;;0.40;;
53519;SDS011;39397;53.204;5.778;2022-09-27T01:32:22;8.57;;;1.13;;
53519;SDS011;39397;53.204;5.778;2022-09-27T01:35:15;0.98;;;0.47;;
53519;SDS011;39397;53.204;5.778;2022-09-27T01:37:47;2.08;;;0.30;;
53519;SDS011;39397;53.204;5.778;2022-09-27T01:40:31;5.07;;;0.60;;
53519;SDS011;39397;53.204;5.778;2022-09-27T01:43:14;4.50;;;0.85;;
53519;SDS011;39397;53.204;5.778;2022-09-27T01:45:56;5.07;;;0.80;;
53519;SDS011;39397;53.204;5.778;2022-09-27T01:48:29;4.75;;;0.65;;
53519;SDS011;39397;53.204;5.778;2022-09-27T01:51:11;8.35;;;1.08;;
53519;SDS011;39397;53.204;5.778;2022-09-27T01:53:42;12.75;;;1.00;;
53519;SDS011;39397;53.204;5.778;2022-09-27T01:56:16;5.43;;;0.88;;
53519;SDS011;39397;53.204;5.778;2022-09-27T01:58:51;4.53;;;0.90;;
53519;SDS011;39397;53.204;5.778;2022-09-27T02:01:33;10.65;;;1.10;;
53519;SDS011;39397;53.204;5.778;2022-09-27T02:04:02;6.80;;;0.93;;
53519;SDS011;39397;53.204;5.778;2022-09-27T02:06:33;6.45;;;1.35;;
53519;SDS011;39397;53.204;5.778;2022-09-27T02:09:07;3.25;;;0.30;;
53519;SDS011;39397;53.204;5.778;2022-09-27T02:11:49;7.40;;;0.95;;
53519;SDS011;39397;53.204;5.778;2022-09-27T02:16:58;2.85;;;0.30;;
53519;SDS011;39397;53.204;5.778;2022-09-27T02:19:36;1.08;;;0.20;;
53519;SDS011;39397;53.204;5.778;2022-09-27T02:24:50;7.28;;;0.63;;
53519;SDS011;39397;53.204;5.778;2022-09-27T02:27:22;5.88;;;0.47;;
53519;SDS011;39397;53.204;5.778;2022-09-27T02:29:54;3.33;;;0.43;;
53519;SDS011;39397;53.204;5.778;2022-09-27T02:32:34;5.00;;;0.80;;
53519;SDS011;39397;53.204;5.778;2022-09-27T02:35:01;5.57;;;0.77;;
53519;SDS011;39397;53.204;5.778;2022-09-27T02:37:31;6.93;;;1.02;;
53519;SDS011;39397;53.204;5.778;2022-09-27T02:39:58;7.32;;;0.65;;
53519;SDS011;39397;53.204;5.778;2022-09-27T02:42:24;8.20;;;0.93;;
53519;SDS011;39397;53.204;5.778;2022-09-27T02:44:51;3.10;;;0.60;;
53519;SDS011;39397;53.204;5.778;2022-09-27T02:47:22;6.70;;;0.52;;
53519;SDS011;39397;53.204;5.778;2022-09-27T02:57:49;6.00;;;0.57;;
53519;SDS011;39397;53.204;5.778;2022-09-27T03:00:37;3.92;;;0.32;;
53519;SDS011;39397;53.204;5.778;2022-09-27T03:03:57;4.35;;;0.43;;
53519;SDS011;39397;53.204;5.778;2022-09-27T03:06:09;4.07;;;0.40;;
53519;SDS011;39397;53.204;5.778;2022-09-27T03:08:37;5.20;;;0.50;;
53519;SDS011;39397;53.204;5.778;2022-09-27T03:11:03;1.83;;;0.85;;
53519;SDS011;39397;53.204;5.778;2022-09-27T03:13:29;4.75;;;0.60;;
53519;SDS011;39397;53.204;5.778;2022-09-27T03:15:55;7.88;;;0.60;;
53519;SDS011;39397;53.204;5.778;2022-09-27T03:18:21;4.72;;;0.40;;
53519;SDS011;39397;53.204;5.778;2022-09-27T03:20:47;6.35;;;0.68;;
53519;SDS011;39397;53.204;5.778;2022-09-27T03:23:13;5.35;;;0.65;;
53519;SDS011;39397;53.204;5.778;2022-09-27T03:25:39;5.95;;;1.77;;
53519;SDS011;39397;53.204;5.778;2022-09-27T03:28:05;11.30;;;1.30;;
53519;SDS011;39397;53.204;5.778;2022-09-27T03:30:30;4.78;;;0.52;;
53519;SDS011;39397;53.204;5.778;2022-09-27T03:32:56;7.20;;;0.60;;
53519;SDS011;39397;53.204;5.778;2022-09-27T03:35:22;5.93;;;1.05;;
53519;SDS011;39397;53.204;5.778;2022-09-27T03:37:48;5.90;;;0.57;;
53519;SDS011;39397;53.204;5.778;2022-09-27T03:40:13;6.90;;;0.98;;
53519;SDS011;39397;53.204;5.778;2022-09-27T03:42:39;5.57;;;0.88;;
53519;SDS011;39397;53.204;5.778;2022-09-27T03:45:05;6.60;;;1.65;;
53519;SDS011;39397;53.204;5.778;2022-09-27T03:47:31;7.25;;;0.57;;
53519;SDS011;39397;53.204;5.778;2022-09-27T03:49:57;4.38;;;0.65;;
53519;SDS011;39397;53.204;5.778;2022-09-27T03:52:22;4.07;;;0.40;;
53519;SDS011;39397;53.204;5.778;2022-09-27T03:54:48;4.28;;;0.45;;
53519;SDS011;39397;53.204;5.778;2022-09-27T03:57:14;7.10;;;0.80;;
53519;SDS011;39397;53.204;5.778;2022-09-27T03:59:40;2.25;;;0.45;;
53519;SDS011;39397;53.204;5.778;2022-09-27T04:02:05;3.95;;;0.50;;
53519;SDS011;39397;53.204;5.778;2022-09-27T04:04:31;2.40;;;0.43;;
53519;SDS011;39397;53.204;5.778;2022-09-27T04:06:57;5.47;;;0.70;;
53519;SDS011;39397;53.204;5.778;2022-09-27T04:09:23;3.25;;;0.60;;
53519;SDS011;39397;53.204;5.778;2022-09-27T04:11:49;3.20;;;0.50;;
53519;SDS011;39397;53.204;5.778;2022-09-27T04:14:15;12.02;;;1.67;;
53519;SDS011;39397;53.204;5.778;2022-09-27T04:16:40;4.78;;;0.50;;
53519;SDS011;39397;53.204;5.778;2022-09-27T04:19:06;10.75;;;1.05;;
53519;SDS011;39397;53.204;5.778;2022-09-27T04:21:33;4.65;;;1.00;;
53519;SDS011;39397;53.204;5.778;2022-09-27T04:23:59;5.55;;;0.77;;
53519;SDS011;39397;53.204;5.778;2022-09-27T04:26:25;4.40;;;0.60;;
53519;SDS011;39397;53.204;5.778;2022-09-27T04:28:51;8.23;;;1.08;;
53519;SDS011;39397;53.204;5.778;2022-09-27T04:31:17;7.60;;;0.65;;
53519;SDS011;39397;53.204;5.778;2022-09-27T04:33:43;9.57;;;0.95;;
53519;SDS011;39397;53.204;5.778;2022-09-27T04:36:10;7.10;;;1.65;;
53519;SDS011;39397;53.204;5.778;2022-09-27T04:38:55;10.75;;;3.72;;
53519;SDS011;39397;53.204;5.778;2022-09-27T04:41:22;6.38;;;1.98;;
53519;SDS011;39397;53.204;5.778;2022-09-27T04:43:52;7.85;;;1.50;;
53519;SDS011;39397;53.204;5.778;2022-09-27T04:46:18;10.25;;;1.52;;
53519;SDS011;39397;53.204;5.778;2022-09-27T04:48:45;8.75;;;1.05;;
53519;SDS011;39397;53.204;5.778;2022-09-27T04:51:12;8.05;;;1.13;;
53519;SDS011;39397;53.204;5.778;2022-09-27T04:53:40;13.68;;;1.60;;
53519;SDS011;39397;53.204;5.778;2022-09-27T04:56:06;4.78;;;1.10;;
53519;SDS011;39397;53.204;5.778;2022-09-27T04:58:32;6.03;;;1.10;;
53519;SDS011;39397;53.204;5.778;2022-09-27T05:00:59;8.55;;;1.02;;
53519;SDS011;39397;53.204;5.778;2022-09-27T05:03:25;5.47;;;0.90;;
53519;SDS011;39397;53.204;5.778;2022-09-27T05:05:52;3.03;;;0.70;;
53519;SDS011;39397;53.204;5.778;2022-09-27T05:08:18;5.05;;;0.70;;
53519;SDS011;39397;53.204;5.778;2022-09-27T05:10:45;5.60;;;0.73;;
53519;SDS011;39397;53.204;5.778;2022-09-27T05:13:11;8.15;;;0.88;;
53519;SDS011;39397;53.204;5.778;2022-09-27T05:15:38;4.78;;;1.33;;
53519;SDS011;39397;53.204;5.778;2022-09-27T05:18:03;5.55;;;0.60;;
53519;SDS011;39397;53.204;5.778;2022-09-27T05:20:32;3.92;;;0.70;;
53519;SDS011;39397;53.204;5.778;2022-09-27T05:22:58;4.93;;;0.80;;
53519;SDS011;39397;53.204;5.778;2022-09-27T05:25:25;4.38;;;0.70;;
53519;SDS011;39397;53.204;5.778;2022-09-27T05:27:51;6.10;;;0.90;;
53519;SDS011;39397;53.204;5.778;2022-09-27T05:30:17;7.65;;;1.10;;
53519;SDS011;39397;53.204;5.778;2022-09-27T05:32:43;3.20;;;0.55;;
53519;SDS011;39397;53.204;5.778;2022-09-27T05:35:13;6.78;;;0.80;;
53519;SDS011;39397;53.204;5.778;2022-09-27T05:37:39;3.70;;;0.90;;
53519;SDS011;39397;53.204;5.778;2022-09-27T05:40:05;4.03;;;0.60;;
53519;SDS011;39397;53.204;5.778;2022-09-27T05:42:31;5.28;;;0.80;;
53519;SDS011;39397;53.204;5.778;2022-09-27T05:44:58;5.35;;;0.73;;
53519;SDS011;39397;53.204;5.778;2022-09-27T05:47:24;7.38;;;1.33;;
53519;SDS011;39397;53.204;5.778;2022-09-27T05:49:50;4.53;;;1.02;;
53519;SDS011;39397;53.204;5.778;2022-09-27T05:52:15;3.00;;;0.68;;
53519;SDS011;39397;53.204;5.778;2022-09-27T05:54:42;13.07;;;2.20;;
53519;SDS011;39397;53.204;5.778;2022-09-27T05:57:07;9.07;;;1.73;;
53519;SDS011;39397;53.204;5.778;2022-09-27T05:59:33;9.20;;;2.05;;
53519;SDS011;39397;53.204;5.778;2022-09-27T06:01:59;17.85;;;1.70;;
53519;SDS011;39397;53.204;5.778;2022-09-27T06:04:25;11.65;;;1.67;;
53519;SDS011;39397;53.204;5.778;2022-09-27T06:06:51;9.25;;;1.38;;
53519;SDS011;39397;53.204;5.778;2022-09-27T06:09:17;12.23;;;1.23;;
53519;SDS011;39397;53.204;5.778;2022-09-27T06:11:42;7.95;;;1.05;;
53519;SDS011;39397;53.204;5.778;2022-09-27T06:14:09;8.63;;;0.95;;
53519;SDS011;39397;53.204;5.778;2022-09-27T06:16:36;6.43;;;0.65;;
53519;SDS011;39397;53.204;5.778;2022-09-27T06:19:01;6.40;;;1.10;;
53519;SDS011;39397;53.204;5.778;2022-09-27T06:21:28;5.90;;;0.88;;
53519;SDS011;39397;53.204;5.778;2022-09-27T06:23:56;12.88;;;1.33;;
53519;SDS011;39397;53.204;5.778;2022-09-27T06:26:24;8.23;;;1.42;;
53519;SDS011;39397;53.204;5.778;2022-09-27T06:28:53;11.02;;;1.73;;
53519;SDS011;39397;53.204;5.778;2022-09-27T06:31:19;10.10;;;1.42;;
53519;SDS011;39397;53.204;5.778;2022-09-27T06:33:46;10.48;;;1.20;;
53519;SDS011;39397;53.204;5.778;2022-09-27T06:36:12;3.53;;;0.80;;
53519;SDS011;39397;53.204;5.778;2022-09-27T06:38:38;10.23;;;1.33;;
53519;SDS011;39397;53.204;5.778;2022-09-27T06:41:04;6.45;;;1.35;;
53519;SDS011;39397;53.204;5.778;2022-09-27T06:43:33;8.75;;;1.00;;
53519;SDS011;39397;53.204;5.778;2022-09-27T06:46:00;6.93;;;1.40;;
53519;SDS011;39397;53.204;5.778;2022-09-27T06:48:30;14.77;;;3.05;;
53519;SDS011;39397;53.204;5.778;2022-09-27T06:50:56;8.68;;;2.50;;
53519;SDS011;39397;53.204;5.778;2022-09-27T06:53:23;8.32;;;2.55;;
53519;SDS011;39397;53.204;5.778;2022-09-27T06:55:49;7.88;;;2.30;;
53519;SDS011;39397;53.204;5.778;2022-09-27T06:58:15;8.15;;;2.58;;
53519;SDS011;39397;53.204;5.778;2022-09-27T07:01:00;39.58;;;8.75;;
53519;SDS011;39397;53.204;5.778;2022-09-27T07:03:26;35.75;;;11.40;;
53519;SDS011;39397;53.204;5.778;2022-09-27T07:06:03;13.73;;;4.10;;
53519;SDS011;39397;53.204;5.778;2022-09-27T07:08:30;5.25;;;0.95;;
53519;SDS011;39397;53.204;5.778;2022-09-27T07:11:02;6.57;;;0.80;;
53519;SDS011;39397;53.204;5.778;2022-09-27T07:13:31;2.17;;;0.60;;
53519;SDS011;39397;53.204;5.778;2022-09-27T07:15:59;2.55;;;0.50;;
53519;SDS011;39397;53.204;5.778;2022-09-27T07:18:25;3.28;;;0.50;;
53519;SDS011;39397;53.204;5.778;2022-09-27T07:20:51;2.85;;;0.40;;
53519;SDS011;39397;53.204;5.778;2022-09-27T07:23:17;3.92;;;0.40;;
53519;SDS011;39397;53.204;5.778;2022-09-27T07:25:44;1.75;;;0.25;;
53519;SDS011;39397;53.204;5.778;2022-09-27T07:28:14;1.33;;;0.30;;
53519;SDS011;39397;53.204;5.778;2022-09-27T07:30:42;2.30;;;0.30;;
53519;SDS011;39397;53.204;5.778;2022-09-27T07:33:08;0.95;;;0.30;;
53519;SDS011;39397;53.204;5.778;2022-09-27T07:35:34;4.25;;;0.68;;
53519;SDS011;39397;53.204;5.778;2022-09-27T07:38:04;1.33;;;0.30;;
53519;SDS011;39397;53.204;5.778;2022-09-27T07:40:32;4.05;;;0.85;;
53519;SDS011;39397;53.204;5.778;2022-09-27T07:42:58;7.57;;;0.90;;
53519;SDS011;39397;53.204;5.778;2022-09-27T07:45:24;4.18;;;0.65;;
53519;SDS011;39397;53.204;5.778;2022-09-27T07:47:51;3.35;;;0.55;;
53519;SDS011;39397;53.204;5.778;2022-09-27T07:50:17;5.10;;;0.80;;
53519;SDS011;39397;53.204;5.778;2022-09-27T07:52:47;7.60;;;0.52;;
53519;SDS011;39397;53.204;5.778;2022-09-27T07:55:15;3.53;;;0.73;;
53519;SDS011;39397;53.204;5.778;2022-09-27T07:57:42;4.35;;;0.70;;
53519;SDS011;39397;53.204;5.778;2022-09-27T08:00:12;8.60;;;0.90;;
53519;SDS011;39397;53.204;5.778;2022-09-27T08:02:41;5.88;;;0.82;;
53519;SDS011;39397;53.204;5.778;2022-09-27T08:05:08;6.68;;;1.15;;
53519;SDS011;39397;53.204;5.778;2022-09-27T08:07:35;6.15;;;1.45;;
53519;SDS011;39397;53.204;5.778;2022-09-27T08:10:04;9.57;;;1.85;;
53519;SDS011;39397;53.204;5.778;2022-09-27T08:12:33;3.92;;;0.90;;
53519;SDS011;39397;53.204;5.778;2022-09-27T08:14:59;3.95;;;1.05;;
53519;SDS011;39397;53.204;5.778;2022-09-27T08:17:30;5.63;;;0.60;;
53519;SDS011;39397;53.204;5.778;2022-09-27T08:19:56;8.07;;;0.85;;
53519;SDS011;39397;53.204;5.778;2022-09-27T08:22:25;9.07;;;0.95;;
53519;SDS011;39397;53.204;5.778;2022-09-27T08:24:50;5.65;;;1.00;;
53519;SDS011;39397;53.204;5.778;2022-09-27T08:27:16;4.30;;;0.80;;
53519;SDS011;39397;53.204;5.778;2022-09-27T08:29:42;7.10;;;0.88;;
53519;SDS011;39397;53.204;5.778;2022-09-27T08:32:08;8.40;;;0.85;;
53519;SDS011;39397;53.204;5.778;2022-09-27T08:34:34;4.72;;;0.98;;
53519;SDS011;39397;53.204;5.778;2022-09-27T08:37:01;7.47;;;1.13;;
53519;SDS011;39397;53.204;5.778;2022-09-27T08:39:26;9.15;;;1.70;;
53519;SDS011;39397;53.204;5.778;2022-09-27T08:42:05;8.70;;;1.27;;
53519;SDS011;39397;53.204;5.778;2022-09-27T08:49:44;3.40;;;0.60;;
53519;SDS011;39397;53.204;5.778;2022-09-27T08:52:14;6.90;;;0.88;;
53519;SDS011;39397;53.204;5.778;2022-09-27T08:54:47;6.35;;;0.70;;
53519;SDS011;39397;53.204;5.778;2022-09-27T08:57:14;8.50;;;1.10;;
53519;SDS011;39397;53.204;5.778;2022-09-27T09:00:04;4.97;;;0.88;;
53519;SDS011;39397;53.204;5.778;2022-09-27T09:02:35;6.70;;;1.20;;
53519;SDS011;39397;53.204;5.778;2022-09-27T09:05:05;4.72;;;0.68;;
53519;SDS011;39397;53.204;5.778;2022-09-27T09:07:58;5.53;;;0.95;;
53519;SDS011;39397;53.204;5.778;2022-09-27T09:18:35;7.07;;;2.08;;
53519;SDS011;39397;53.204;5.778;2022-09-27T09:21:10;5.82;;;0.50;;
53519;SDS011;39397;53.204;5.778;2022-09-27T09:27:14;16.55;;;5.35;;
53519;SDS011;39397;53.204;5.778;2022-09-27T09:32:53;11.70;;;0.88;;
53519;SDS011;39397;53.204;5.778;2022-09-27T09:35:11;6.20;;;0.50;;
53519;SDS011;39397;53.204;5.778;2022-09-27T09:37:59;2.95;;;0.50;;
53519;SDS011;39397;53.204;5.778;2022-09-27T09:45:57;6.78;;;0.80;;
53519;SDS011;39397;53.204;5.778;2022-09-27T09:50:58;7.05;;;0.70;;
53519;SDS011;39397;53.204;5.778;2022-09-27T09:56:05;8.25;;;1.05;;
53519;SDS011;39397;53.204;5.778;2022-09-27T10:01:43;4.22;;;0.40;;
53519;SDS011;39397;53.204;5.778;2022-09-27T10:04:18;2.70;;;0.45;;
53519;SDS011;39397;53.204;5.778;2022-09-27T10:06:47;2.63;;;0.40;;
53519;SDS011;39397;53.204;5.778;2022-09-27T10:09:14;5.03;;;1.02;;
53519;SDS011;39397;53.204;5.778;2022-09-27T10:11:42;1.95;;;0.35;;
53519;SDS011;39397;53.204;5.778;2022-09-27T10:14:10;6.43;;;0.70;;
53519;SDS011;39397;53.204;5.778;2022-09-27T10:16:38;11.13;;;0.88;;
53519;SDS011;39397;53.204;5.778;2022-09-27T10:19:07;10.52;;;0.75;;
53519;SDS011;39397;53.204;5.778;2022-09-27T10:21:33;3.25;;;0.70;;
53519;SDS011;39397;53.204;5.778;2022-09-27T10:24:16;4.55;;;0.80;;
53519;SDS011;39397;53.204;5.778;2022-09-27T10:26:44;6.68;;;0.70;;
53519;SDS011;39397;53.204;5.778;2022-09-27T10:29:28;3.78;;;0.65;;
53519;SDS011;39397;53.204;5.778;2022-09-27T10:31:56;2.00;;;0.40;;
53519;SDS011;39397;53.204;5.778;2022-09-27T10:39:29;1.55;;;0.28;;
53519;SDS011;39397;53.204;5.778;2022-09-27T10:41:55;2.75;;;0.30;;
53519;SDS011;39397;53.204;5.778;2022-09-27T10:46:52;1.33;;;0.25;;
53519;SDS011;39397;53.204;5.778;2022-09-27T10:51:52;3.42;;;0.60;;
53519;SDS011;39397;53.204;5.778;2022-09-27T10:54:22;3.30;;;0.52;;
53519;SDS011;39397;53.204;5.778;2022-09-27T10:57:34;4.07;;;0.63;;
53519;SDS011;39397;53.204;5.778;2022-09-27T11:00:19;4.82;;;0.50;;
53519;SDS011;39397;53.204;5.778;2022-09-27T11:02:58;7.22;;;0.77;;
53519;SDS011;39397;53.204;5.778;2022-09-27T11:05:30;3.15;;;0.40;;
53519;SDS011;39397;53.204;5.778;2022-09-27T11:07:58;2.33;;;0.47;;
53519;SDS011;39397;53.204;5.778;2022-09-27T11:10:31;4.13;;;0.60;;
53519;SDS011;39397;53.204;5.778;2022-09-27T11:13:20;2.92;;;0.70;;
53519;SDS011;39397;53.204;5.778;2022-09-27T11:27:01;3.92;;;0.50;;
53519;SDS011;39397;53.204;5.778;2022-09-27T11:29:38;3.55;;;0.50;;
53519;SDS011;39397;53.204;5.778;2022-09-27T11:37:33;5.20;;;0.50;;
53519;SDS011;39397;53.204;5.778;2022-09-27T11:40:20;5.10;;;0.55;;
53519;SDS011;39397;53.204;5.778;2022-09-27T11:51:29;3.08;;;0.40;;
53519;SDS011;39397;53.204;5.778;2022-09-27T11:57:08;9.43;;;1.05;;
53519;SDS011;39397;53.204;5.778;2022-09-27T12:08:27;3.03;;;0.32;;
53519;SDS011;39397;53.204;5.778;2022-09-27T12:10:59;4.95;;;0.52;;
53519;SDS011;39397;53.204;5.778;2022-09-27T12:14:10;3.30;;;0.50;;
53519;SDS011;39397;53.204;5.778;2022-09-27T12:16:39;6.22;;;0.70;;
53519;SDS011;39397;53.204;5.778;2022-09-27T12:19:10;3.17;;;0.70;;
53519;SDS011;39397;53.204;5.778;2022-09-27T12:21:43;4.70;;;0.50;;
53519;SDS011;39397;53.204;5.778;2022-09-27T12:24:14;7.03;;;0.70;;
53519;SDS011;39397;53.204;5.778;2022-09-27T12:26:44;3.95;;;0.57;;
53519;SDS011;39397;53.204;5.778;2022-09-27T12:29:16;2.45;;;0.40;;
53519;SDS011;39397;53.204;5.778;2022-09-27T12:31:45;4.40;;;0.70;;
53519;SDS011;39397;53.204;5.778;2022-09-27T12:42:54;8.88;;;1.42;;
53519;SDS011;39397;53.204;5.778;2022-09-27T12:48:40;4.07;;;1.10;;
53519;SDS011;39397;53.204;5.778;2022-09-27T12:51:15;2.90;;;0.50;;
53519;SDS011;39397;53.204;5.778;2022-09-27T12:54:06;5.10;;;0.90;;
53519;SDS011;39397;53.204;5.778;2022-09-27T12:59:12;7.25;;;0.75;;
53519;SDS011;39397;53.204;5.778;2022-09-27T13:09:58;9.52;;;1.42;;
53519;SDS011;39397;53.204;5.778;2022-09-27T13:12:29;7.25;;;1.17;;
53519;SDS011;39397;53.204;5.778;2022-09-27T13:15:01;4.93;;;0.60;;
53519;SDS011;39397;53.204;5.778;2022-09-27T13:22:52;4.45;;;0.55;;
53519;SDS011;39397;53.204;5.778;2022-09-27T13:30:57;5.25;;;0.60;;
53519;SDS011;39397;53.204;5.778;2022-09-27T13:38:31;3.35;;;0.60;;
53519;SDS011;39397;53.204;5.778;2022-09-27T13:41:16;3.50;;;0.68;;
53519;SDS011;39397;53.204;5.778;2022-09-27T13:46:31;4.35;;;1.00;;
53519;SDS011;39397;53.204;5.778;2022-09-27T13:51:48;2.00;;;0.60;;
53519;SDS011;39397;53.204;5.778;2022-09-27T13:54:52;2.58;;;0.43;;
53519;SDS011;39397;53.204;5.778;2022-09-27T14:00:03;0.95;;;0.40;;
53519;SDS011;39397;53.204;5.778;2022-09-27T14:05:12;1.50;;;0.38;;
53519;SDS011;39397;53.204;5.778;2022-09-27T14:07:44;4.05;;;0.45;;
53519;SDS011;39397;53.204;5.778;2022-09-27T14:10:16;1.58;;;0.32;;
53519;SDS011;39397;53.204;5.778;2022-09-27T14:12:46;1.90;;;1.02;;
53519;SDS011;39397;53.204;5.778;2022-09-27T14:15:27;2.03;;;0.30;;
53519;SDS011;39397;53.204;5.778;2022-09-27T14:17:55;1.02;;;0.20;;
53519;SDS011;39397;53.204;5.778;2022-09-27T14:20:37;2.67;;;0.60;;
53519;SDS011;39397;53.204;5.778;2022-09-27T14:23:10;1.15;;;0.35;;
53519;SDS011;39397;53.204;5.778;2022-09-27T14:25:49;2.20;;;0.50;;
53519;SDS011;39397;53.204;5.778;2022-09-27T14:28:26;3.80;;;0.85;;
53519;SDS011;39397;53.204;5.778;2022-09-27T14:33:35;2.63;;;0.30;;
53519;SDS011;39397;53.204;5.778;2022-09-27T14:36:01;2.13;;;0.35;;
53519;SDS011;39397;53.204;5.778;2022-09-27T14:38:46;1.40;;;0.40;;
53519;SDS011;39397;53.204;5.778;2022-09-27T14:41:12;2.92;;;0.50;;
53519;SDS011;39397;53.204;5.778;2022-09-27T14:43:43;3.20;;;0.70;;
53519;SDS011;39397;53.204;5.778;2022-09-27T14:46:24;6.28;;;0.65;;
53519;SDS011;39397;53.204;5.778;2022-09-27T14:48:51;2.58;;;0.40;;
53519;SDS011;39397;53.204;5.778;2022-09-27T14:51:19;3.25;;;0.85;;
53519;SDS011;39397;53.204;5.778;2022-09-27T14:53:51;3.45;;;0.50;;
53519;SDS011;39397;53.204;5.778;2022-09-27T14:56:23;3.03;;;0.60;;
53519;SDS011;39397;53.204;5.778;2022-09-27T14:59:02;5.18;;;1.05;;
53519;SDS011;39397;53.204;5.778;2022-09-27T15:01:35;7.25;;;1.20;;
53519;SDS011;39397;53.204;5.778;2022-09-27T15:04:04;5.05;;;1.35;;
53519;SDS011;39397;53.204;5.778;2022-09-27T15:06:35;4.38;;;1.00;;
53519;SDS011;39397;53.204;5.778;2022-09-27T15:09:02;9.00;;;1.83;;
53519;SDS011;39397;53.204;5.778;2022-09-27T15:11:29;11.57;;;3.65;;
53519;SDS011;39397;53.204;5.778;2022-09-27T15:13:58;6.43;;;1.17;;
53519;SDS011;39397;53.204;5.778;2022-09-27T15:16:26;7.95;;;2.00;;
53519;SDS011;39397;53.204;5.778;2022-09-27T15:19:02;5.70;;;1.00;;
53519;SDS011;39397;53.204;5.778;2022-09-27T15:21:38;11.63;;;2.65;;
53519;SDS011;39397;53.204;5.778;2022-09-27T15:24:04;8.15;;;2.30;;
53519;SDS011;39397;53.204;5.778;2022-09-27T15:29:00;8.98;;;3.00;;
53519;SDS011;39397;53.204;5.778;2022-09-27T15:31:27;11.07;;;5.35;;
53519;SDS011;39397;53.204;5.778;2022-09-27T15:33:55;4.97;;;1.48;;
53519;SDS011;39397;53.204;5.778;2022-09-27T15:39:28;11.20;;;1.42;;
53519;SDS011;39397;53.204;5.778;2022-09-27T15:42:18;12.70;;;2.88;;
53519;SDS011;39397;53.204;5.778;2022-09-27T15:49:58;7.47;;;1.98;;
53519;SDS011;39397;53.204;5.778;2022-09-27T15:52:40;7.95;;;1.80;;
53519;SDS011;39397;53.204;5.778;2022-09-27T15:55:14;9.15;;;2.15;;
53519;SDS011;39397;53.204;5.778;2022-09-27T15:57:42;6.75;;;2.72;;
53519;SDS011;39397;53.204;5.778;2022-09-27T16:00:13;4.05;;;1.35;;
53519;SDS011;39397;53.204;5.778;2022-09-27T16:02:44;4.95;;;1.15;;
53519;SDS011;39397;53.204;5.778;2022-09-27T16:05:11;5.88;;;0.80;;
53519;SDS011;39397;53.204;5.778;2022-09-27T16:07:37;7.15;;;1.20;;
53519;SDS011;39397;53.204;5.778;2022-09-27T16:10:22;3.67;;;1.23;;
53519;SDS011;39397;53.204;5.778;2022-09-27T16:12:59;4.63;;;0.90;;
53519;SDS011;39397;53.204;5.778;2022-09-27T16:15:24;2.88;;;0.57;;
53519;SDS011;39397;53.204;5.778;2022-09-27T16:17:50;3.40;;;0.68;;
53519;SDS011;39397;53.204;5.778;2022-09-27T16:20:17;5.28;;;0.80;;
53519;SDS011;39397;53.204;5.778;2022-09-27T16:22:47;4.97;;;1.05;;
53519;SDS011;39397;53.204;5.778;2022-09-27T16:25:13;7.65;;;1.23;;
53519;SDS011;39397;53.204;5.778;2022-09-27T16:27:38;6.78;;;1.13;;
53519;SDS011;39397;53.204;5.778;2022-09-27T16:30:05;8.85;;;2.38;;
53519;SDS011;39397;53.204;5.778;2022-09-27T16:32:32;6.40;;;1.10;;
53519;SDS011;39397;53.204;5.778;2022-09-27T16:34:58;8.85;;;1.65;;
53519;SDS011;39397;53.204;5.778;2022-09-27T16:37:24;8.93;;;1.67;;
53519;SDS011;39397;53.204;5.778;2022-09-27T16:39:49;5.82;;;1.42;;
53519;SDS011;39397;53.204;5.778;2022-09-27T16:42:15;6.47;;;0.90;;
53519;SDS011;39397;53.204;5.778;2022-09-27T16:44:41;11.93;;;1.30;;
53519;SDS011;39397;53.204;5.778;2022-09-27T16:47:06;8.15;;;1.05;;
53519;SDS011;39397;53.204;5.778;2022-09-27T16:49:33;4.80;;;0.85;;
53519;SDS011;39397;53.204;5.778;2022-09-27T16:52:17;6.60;;;1.48;;
53519;SDS011;39397;53.204;5.778;2022-09-27T16:54:43;5.40;;;1.05;;
53519;SDS011;39397;53.204;5.778;2022-09-27T16:57:08;4.25;;;1.05;;
53519;SDS011;39397;53.204;5.778;2022-09-27T16:59:34;6.70;;;1.58;;
53519;SDS011;39397;53.204;5.778;2022-09-27T17:02:00;4.05;;;1.02;;
53519;SDS011;39397;53.204;5.778;2022-09-27T17:04:28;5.30;;;2.25;;
53519;SDS011;39397;53.204;5.778;2022-09-27T17:06:54;5.35;;;1.35;;
53519;SDS011;39397;53.204;5.778;2022-09-27T17:09:21;4.40;;;1.45;;
53519;SDS011;39397;53.204;5.778;2022-09-27T17:11:47;4.60;;;1.90;;
53519;SDS011;39397;53.204;5.778;2022-09-27T17:14:12;5.43;;;1.30;;
53519;SDS011;39397;53.204;5.778;2022-09-27T17:16:41;5.75;;;1.30;;
53519;SDS011;39397;53.204;5.778;2022-09-27T17:19:08;6.55;;;2.55;;
53519;SDS011;39397;53.204;5.778;2022-09-27T17:21:37;5.82;;;2.03;;
53519;SDS011;39397;53.204;5.778;2022-09-27T17:24:03;5.18;;;2.08;;
53519;SDS011;39397;53.204;5.778;2022-09-27T17:26:29;5.40;;;1.48;;
53519;SDS011;39397;53.204;5.778;2022-09-27T17:28:56;7.57;;;1.80;;
53519;SDS011;39397;53.204;5.778;2022-09-27T17:31:22;6.05;;;1.40;;
53519;SDS011;39397;53.204;5.778;2022-09-27T17:33:50;5.75;;;1.40;;
53519;SDS011;39397;53.204;5.778;2022-09-27T17:36:20;8.60;;;1.48;;
53519;SDS011;39397;53.204;5.778;2022-09-27T17:38:48;4.80;;;1.80;;
53519;SDS011;39397;53.204;5.778;2022-09-27T17:41:16;7.97;;;1.50;;
53519;SDS011;39397;53.204;5.778;2022-09-27T17:43:44;4.80;;;1.35;;
53519;SDS011;39397;53.204;5.778;2022-09-27T17:46:16;8.98;;;1.50;;
53519;SDS011;39397;53.204;5.778;2022-09-27T17:48:44;4.10;;;1.23;;
53519;SDS011;39397;53.204;5.778;2022-09-27T17:51:29;8.23;;;1.05;;
53519;SDS011;39397;53.204;5.778;2022-09-27T17:53:55;7.18;;;1.27;;
53519;SDS011;39397;53.204;5.778;2022-09-27T17:56:21;4.35;;;1.27;;
53519;SDS011;39397;53.204;5.778;2022-09-27T17:58:48;9.68;;;2.55;;